sensor_id;sensor_type;location;lat;lon;timestamp;P1;durP1;ratioP1;P2;durP2;ratioP2
23300;SDS011;11819;51.394;12.340;2023-04-25T00:01:20;11.45;;;7.07;;
23300;SDS011;11819;51.394;12.340;2023-04-25T00:03:49;12.40;;;7.15;;
23300;SDS011;11819;51.394;12.340;2023-04-25T00:06:15;11.15;;;6.60;;
23300;SDS011;11819;51.394;12.340;2023-04-25T00:08:42;9.68;;;7.22;;
23300;SDS011;11819;51.394;12.340;2023-04-25T00:11:08;11.93;;;7.75;;
23300;SDS011;11819;51.394;12.340;2023-04-25T00:13:34;12.82;;;6.68;;
23300;SDS011;11819;51.394;12.340;2023-04-25T00:16:00;10.82;;;7.00;;
23300;SDS011;11819;51.394;12.340;2023-04-25T00:18:27;11.90;;;6.53;;
23300;SDS011;11819;51.394;12.340;2023-04-25T00:20:58;15.02;;;7.35;;
23300;SDS011;11819;51.394;12.340;2023-04-25T00:23:23;11.90;;;6.55;;
23300;SDS011;11819;51.394;12.340;2023-04-25T00:25:49;12.18;;;6.93;;
23300;SDS011;11819;51.394;12.340;2023-04-25T00:28:16;11.50;;;6.40;;
23300;SDS011;11819;51.394;12.340;2023-04-25T00:30:42;11.23;;;7.05;;
23300;SDS011;11819;51.394;12.340;2023-04-25T00:33:08;10.95;;;7.50;;
23300;SDS011;11819;51.394;12.340;2023-04-25T00:35:35;12.40;;;7.32;;
23300;SDS011;11819;51.394;12.340;2023-04-25T00:38:01;10.73;;;7.40;;
23300;SDS011;11819;51.394;12.340;2023-04-25T00:40:27;12.15;;;8.00;;
23300;SDS011;11819;51.394;12.340;2023-04-25T00:42:54;12.25;;;7.40;;
23300;SDS011;11819;51.394;12.340;2023-04-25T00:45:20;10.98;;;7.13;;
23300;SDS011;11819;51.394;12.340;2023-04-25T00:47:46;11.18;;;6.85;;
23300;SDS011;11819;51.394;12.340;2023-04-25T00:50:12;12.13;;;7.30;;
23300;SDS011;11819;51.394;12.340;2023-04-25T00:52:39;10.80;;;6.97;;
23300;SDS011;11819;51.394;12.340;2023-04-25T00:55:08;10.85;;;6.88;;
23300;SDS011;11819;51.394;12.340;2023-04-25T00:57:35;11.43;;;7.40;;
23300;SDS011;11819;51.394;12.340;2023-04-25T01:00:01;12.73;;;7.25;;
23300;SDS011;11819;51.394;12.340;2023-04-25T01:02:28;11.35;;;7.18;;
23300;SDS011;11819;51.394;12.340;2023-04-25T01:04:54;12.10;;;7.43;;
23300;SDS011;11819;51.394;12.340;2023-04-25T01:07:19;12.82;;;7.82;;
23300;SDS011;11819;51.394;12.340;2023-04-25T01:09:46;11.40;;;7.32;;
23300;SDS011;11819;51.394;12.340;2023-04-25T01:12:12;12.38;;;7.80;;
23300;SDS011;11819;51.394;12.340;2023-04-25T01:14:39;11.82;;;7.30;;
23300;SDS011;11819;51.394;12.340;2023-04-25T01:17:05;15.43;;;7.75;;
23300;SDS011;11819;51.394;12.340;2023-04-25T01:19:33;13.95;;;7.88;;
23300;SDS011;11819;51.394;12.340;2023-04-25T01:21:59;15.07;;;8.00;;
23300;SDS011;11819;51.394;12.340;2023-04-25T01:24:25;12.93;;;8.48;;
23300;SDS011;11819;51.394;12.340;2023-04-25T01:26:51;14.80;;;8.40;;
23300;SDS011;11819;51.394;12.340;2023-04-25T01:29:22;15.30;;;8.93;;
23300;SDS011;11819;51.394;12.340;2023-04-25T01:31:49;13.98;;;8.40;;
23300;SDS011;11819;51.394;12.340;2023-04-25T01:34:17;14.65;;;8.85;;
23300;SDS011;11819;51.394;12.340;2023-04-25T01:36:43;12.38;;;8.23;;
23300;SDS011;11819;51.394;12.340;2023-04-25T01:39:11;14.40;;;8.77;;
23300;SDS011;11819;51.394;12.340;2023-04-25T01:41:37;14.50;;;8.05;;
23300;SDS011;11819;51.394;12.340;2023-04-25T01:44:03;12.50;;;8.07;;
23300;SDS011;11819;51.394;12.340;2023-04-25T01:46:30;13.13;;;8.23;;
23300;SDS011;11819;51.394;12.340;2023-04-25T01:48:56;11.50;;;6.93;;
23300;SDS011;11819;51.394;12.340;2023-04-25T01:51:23;12.25;;;7.35;;
23300;SDS011;11819;51.394;12.340;2023-04-25T01:53:49;13.20;;;8.00;;
23300;SDS011;11819;51.394;12.340;2023-04-25T01:56:15;11.48;;;7.25;;
23300;SDS011;11819;51.394;12.340;2023-04-25T01:58:43;12.07;;;7.10;;
23300;SDS011;11819;51.394;12.340;2023-04-25T02:01:18;12.57;;;6.40;;
23300;SDS011;11819;51.394;12.340;2023-04-25T02:03:55;9.45;;;6.07;;
23300;SDS011;11819;51.394;12.340;2023-04-25T02:06:26;8.73;;;6.00;;
23300;SDS011;11819;51.394;12.340;2023-04-25T02:08:56;10.77;;;6.65;;
23300;SDS011;11819;51.394;12.340;2023-04-25T02:11:21;11.23;;;5.85;;
23300;SDS011;11819;51.394;12.340;2023-04-25T02:14:11;10.93;;;5.43;;
23300;SDS011;11819;51.394;12.340;2023-04-25T02:17:04;8.85;;;5.60;;
23300;SDS011;11819;51.394;12.340;2023-04-25T02:19:30;9.82;;;5.78;;
23300;SDS011;11819;51.394;12.340;2023-04-25T02:21:56;8.73;;;5.47;;
23300;SDS011;11819;51.394;12.340;2023-04-25T02:24:23;11.70;;;6.43;;
23300;SDS011;11819;51.394;12.340;2023-04-25T02:26:50;10.50;;;6.70;;
23300;SDS011;11819;51.394;12.340;2023-04-25T02:29:16;11.48;;;6.25;;
23300;SDS011;11819;51.394;12.340;2023-04-25T02:31:42;10.30;;;6.13;;
23300;SDS011;11819;51.394;12.340;2023-04-25T02:34:07;11.70;;;6.13;;
23300;SDS011;11819;51.394;12.340;2023-04-25T02:36:36;11.45;;;6.22;;
23300;SDS011;11819;51.394;12.340;2023-04-25T02:39:01;13.50;;;6.47;;
23300;SDS011;11819;51.394;12.340;2023-04-25T02:41:28;8.73;;;5.63;;
23300;SDS011;11819;51.394;12.340;2023-04-25T02:43:54;9.70;;;6.05;;
23300;SDS011;11819;51.394;12.340;2023-04-25T02:46:20;10.32;;;6.13;;
23300;SDS011;11819;51.394;12.340;2023-04-25T02:48:45;10.40;;;5.95;;
23300;SDS011;11819;51.394;12.340;2023-04-25T02:51:12;10.70;;;7.10;;
23300;SDS011;11819;51.394;12.340;2023-04-25T02:53:39;8.90;;;5.70;;
23300;SDS011;11819;51.394;12.340;2023-04-25T02:56:04;10.80;;;6.32;;
23300;SDS011;11819;51.394;12.340;2023-04-25T02:58:31;11.80;;;6.60;;
23300;SDS011;11819;51.394;12.340;2023-04-25T03:00:57;15.65;;;7.05;;
23300;SDS011;11819;51.394;12.340;2023-04-25T03:03:22;11.35;;;6.32;;
23300;SDS011;11819;51.394;12.340;2023-04-25T03:05:49;11.15;;;6.63;;
23300;SDS011;11819;51.394;12.340;2023-04-25T03:08:20;10.70;;;7.07;;
23300;SDS011;11819;51.394;12.340;2023-04-25T03:10:45;13.20;;;6.93;;
23300;SDS011;11819;51.394;12.340;2023-04-25T03:13:13;11.38;;;6.57;;
23300;SDS011;11819;51.394;12.340;2023-04-25T03:15:41;10.85;;;6.55;;
23300;SDS011;11819;51.394;12.340;2023-04-25T03:18:07;11.27;;;7.03;;
23300;SDS011;11819;51.394;12.340;2023-04-25T03:20:32;9.40;;;6.22;;
23300;SDS011;11819;51.394;12.340;2023-04-25T03:22:58;10.25;;;6.32;;
23300;SDS011;11819;51.394;12.340;2023-04-25T03:25:24;12.02;;;6.70;;
23300;SDS011;11819;51.394;12.340;2023-04-25T03:27:49;9.07;;;5.43;;
23300;SDS011;11819;51.394;12.340;2023-04-25T03:30:15;10.03;;;6.30;;
23300;SDS011;11819;51.394;12.340;2023-04-25T03:32:42;11.17;;;6.13;;
23300;SDS011;11819;51.394;12.340;2023-04-25T03:35:09;10.18;;;5.90;;
23300;SDS011;11819;51.394;12.340;2023-04-25T03:37:35;10.03;;;5.97;;
23300;SDS011;11819;51.394;12.340;2023-04-25T03:40:01;10.05;;;5.80;;
23300;SDS011;11819;51.394;12.340;2023-04-25T03:42:46;10.27;;;5.80;;
23300;SDS011;11819;51.394;12.340;2023-04-25T03:45:12;13.10;;;6.23;;
23300;SDS011;11819;51.394;12.340;2023-04-25T03:47:37;10.97;;;5.57;;
23300;SDS011;11819;51.394;12.340;2023-04-25T03:50:03;10.27;;;5.60;;
23300;SDS011;11819;51.394;12.340;2023-04-25T03:52:29;11.87;;;6.10;;
23300;SDS011;11819;51.394;12.340;2023-04-25T03:54:55;12.82;;;6.05;;
23300;SDS011;11819;51.394;12.340;2023-04-25T03:57:23;13.73;;;6.28;;
23300;SDS011;11819;51.394;12.340;2023-04-25T03:59:49;10.27;;;5.75;;
23300;SDS011;11819;51.394;12.340;2023-04-25T04:02:17;11.30;;;5.90;;
23300;SDS011;11819;51.394;12.340;2023-04-25T04:04:43;9.57;;;5.80;;
23300;SDS011;11819;51.394;12.340;2023-04-25T04:07:09;14.87;;;6.13;;
23300;SDS011;11819;51.394;12.340;2023-04-25T04:09:38;12.45;;;6.13;;
23300;SDS011;11819;51.394;12.340;2023-04-25T04:12:08;12.70;;;6.17;;
23300;SDS011;11819;51.394;12.340;2023-04-25T04:14:37;9.87;;;6.03;;
23300;SDS011;11819;51.394;12.340;2023-04-25T04:17:03;13.15;;;6.82;;
23300;SDS011;11819;51.394;12.340;2023-04-25T04:19:29;11.45;;;5.80;;
23300;SDS011;11819;51.394;12.340;2023-04-25T04:22:03;10.13;;;5.67;;
23300;SDS011;11819;51.394;12.340;2023-04-25T04:24:29;11.47;;;6.30;;
23300;SDS011;11819;51.394;12.340;2023-04-25T04:26:59;15.40;;;6.40;;
23300;SDS011;11819;51.394;12.340;2023-04-25T04:29:35;15.63;;;6.57;;
23300;SDS011;11819;51.394;12.340;2023-04-25T04:32:09;14.45;;;6.70;;
23300;SDS011;11819;51.394;12.340;2023-04-25T04:34:35;12.18;;;7.40;;
23300;SDS011;11819;51.394;12.340;2023-04-25T04:37:01;13.25;;;6.20;;
23300;SDS011;11819;51.394;12.340;2023-04-25T04:39:44;12.53;;;6.33;;
23300;SDS011;11819;51.394;12.340;2023-04-25T04:42:43;13.02;;;6.72;;
23300;SDS011;11819;51.394;12.340;2023-04-25T04:45:33;12.50;;;6.67;;
23300;SDS011;11819;51.394;12.340;2023-04-25T04:48:19;10.83;;;6.53;;
23300;SDS011;11819;51.394;12.340;2023-04-25T04:51:04;12.43;;;6.75;;
23300;SDS011;11819;51.394;12.340;2023-04-25T04:53:49;12.00;;;6.83;;
23300;SDS011;11819;51.394;12.340;2023-04-25T04:56:50;16.17;;;6.83;;
23300;SDS011;11819;51.394;12.340;2023-04-25T04:59:36;14.10;;;6.90;;
23300;SDS011;11819;51.394;12.340;2023-04-25T05:02:21;13.70;;;7.10;;
23300;SDS011;11819;51.394;12.340;2023-04-25T05:05:06;13.83;;;7.13;;
23300;SDS011;11819;51.394;12.340;2023-04-25T05:07:51;15.40;;;7.70;;
23300;SDS011;11819;51.394;12.340;2023-04-25T05:10:38;16.15;;;8.00;;
23300;SDS011;11819;51.394;12.340;2023-04-25T05:13:14;10.70;;;6.38;;
23300;SDS011;11819;51.394;12.340;2023-04-25T05:15:56;14.90;;;8.00;;
23300;SDS011;11819;51.394;12.340;2023-04-25T05:18:33;14.23;;;7.60;;
23300;SDS011;11819;51.394;12.340;2023-04-25T05:21:05;14.63;;;8.47;;
23300;SDS011;11819;51.394;12.340;2023-04-25T05:23:53;14.65;;;7.78;;
23300;SDS011;11819;51.394;12.340;2023-04-25T05:26:32;13.13;;;7.73;;
23300;SDS011;11819;51.394;12.340;2023-04-25T05:29:22;19.23;;;7.85;;
23300;SDS011;11819;51.394;12.340;2023-04-25T05:32:01;12.80;;;7.13;;
23300;SDS011;11819;51.394;12.340;2023-04-25T05:34:27;16.27;;;8.18;;
23300;SDS011;11819;51.394;12.340;2023-04-25T05:36:59;12.77;;;7.47;;
23300;SDS011;11819;51.394;12.340;2023-04-25T05:39:25;14.73;;;7.90;;
23300;SDS011;11819;51.394;12.340;2023-04-25T05:41:51;14.50;;;7.90;;
23300;SDS011;11819;51.394;12.340;2023-04-25T05:44:40;13.80;;;7.72;;
23300;SDS011;11819;51.394;12.340;2023-04-25T05:47:24;14.32;;;7.78;;
23300;SDS011;11819;51.394;12.340;2023-04-25T05:50:00;15.98;;;8.45;;
23300;SDS011;11819;51.394;12.340;2023-04-25T05:52:42;18.90;;;8.15;;
23300;SDS011;11819;51.394;12.340;2023-04-25T05:55:17;16.40;;;8.50;;
23300;SDS011;11819;51.394;12.340;2023-04-25T05:57:43;17.90;;;8.45;;
23300;SDS011;11819;51.394;12.340;2023-04-25T06:00:12;15.15;;;8.80;;
23300;SDS011;11819;51.394;12.340;2023-04-25T06:02:40;21.17;;;10.18;;
23300;SDS011;11819;51.394;12.340;2023-04-25T06:05:07;15.55;;;8.15;;
23300;SDS011;11819;51.394;12.340;2023-04-25T06:07:33;16.73;;;8.63;;
23300;SDS011;11819;51.394;12.340;2023-04-25T06:09:58;12.98;;;7.25;;
23300;SDS011;11819;51.394;12.340;2023-04-25T06:12:25;15.10;;;7.22;;
23300;SDS011;11819;51.394;12.340;2023-04-25T06:14:52;15.82;;;8.90;;
23300;SDS011;11819;51.394;12.340;2023-04-25T06:17:17;15.32;;;8.38;;
23300;SDS011;11819;51.394;12.340;2023-04-25T06:19:43;14.20;;;7.97;;
23300;SDS011;11819;51.394;12.340;2023-04-25T06:22:09;15.02;;;8.55;;
23300;SDS011;11819;51.394;12.340;2023-04-25T06:24:38;14.95;;;8.25;;
23300;SDS011;11819;51.394;12.340;2023-04-25T06:27:03;17.95;;;8.85;;
23300;SDS011;11819;51.394;12.340;2023-04-25T06:29:30;15.23;;;9.25;;
23300;SDS011;11819;51.394;12.340;2023-04-25T06:31:57;19.00;;;8.05;;
23300;SDS011;11819;51.394;12.340;2023-04-25T06:34:23;16.63;;;9.13;;
23300;SDS011;11819;51.394;12.340;2023-04-25T06:36:49;15.73;;;8.68;;
23300;SDS011;11819;51.394;12.340;2023-04-25T06:39:15;18.20;;;9.18;;
23300;SDS011;11819;51.394;12.340;2023-04-25T06:41:41;16.65;;;8.65;;
23300;SDS011;11819;51.394;12.340;2023-04-25T06:44:13;16.13;;;9.07;;
23300;SDS011;11819;51.394;12.340;2023-04-25T06:46:52;18.27;;;7.93;;
23300;SDS011;11819;51.394;12.340;2023-04-25T06:49:18;16.58;;;8.68;;
23300;SDS011;11819;51.394;12.340;2023-04-25T06:51:45;14.63;;;8.45;;
23300;SDS011;11819;51.394;12.340;2023-04-25T06:54:11;16.08;;;8.45;;
23300;SDS011;11819;51.394;12.340;2023-04-25T06:56:44;16.42;;;9.00;;
23300;SDS011;11819;51.394;12.340;2023-04-25T06:59:13;16.45;;;8.35;;
23300;SDS011;11819;51.394;12.340;2023-04-25T07:01:39;15.32;;;8.02;;
23300;SDS011;11819;51.394;12.340;2023-04-25T07:04:17;14.57;;;8.05;;
23300;SDS011;11819;51.394;12.340;2023-04-25T07:06:52;14.82;;;8.82;;
23300;SDS011;11819;51.394;12.340;2023-04-25T07:09:23;20.48;;;11.98;;
23300;SDS011;11819;51.394;12.340;2023-04-25T07:11:50;20.20;;;10.73;;
23300;SDS011;11819;51.394;12.340;2023-04-25T07:14:16;19.90;;;12.25;;
23300;SDS011;11819;51.394;12.340;2023-04-25T07:16:42;16.98;;;10.00;;
23300;SDS011;11819;51.394;12.340;2023-04-25T07:19:07;11.93;;;6.43;;
23300;SDS011;11819;51.394;12.340;2023-04-25T07:21:34;25.58;;;13.77;;
23300;SDS011;11819;51.394;12.340;2023-04-25T07:24:04;16.23;;;9.93;;
23300;SDS011;11819;51.394;12.340;2023-04-25T07:26:34;18.65;;;10.48;;
23300;SDS011;11819;51.394;12.340;2023-04-25T07:29:20;18.15;;;10.30;;
23300;SDS011;11819;51.394;12.340;2023-04-25T07:31:45;15.45;;;9.55;;
23300;SDS011;11819;51.394;12.340;2023-04-25T07:34:11;17.27;;;9.85;;
23300;SDS011;11819;51.394;12.340;2023-04-25T07:36:38;21.05;;;12.00;;
23300;SDS011;11819;51.394;12.340;2023-04-25T07:39:04;27.70;;;16.23;;
23300;SDS011;11819;51.394;12.340;2023-04-25T07:41:30;21.85;;;13.45;;
23300;SDS011;11819;51.394;12.340;2023-04-25T07:43:55;17.58;;;9.38;;
23300;SDS011;11819;51.394;12.340;2023-04-25T07:46:21;14.55;;;9.48;;
23300;SDS011;11819;51.394;12.340;2023-04-25T07:48:46;11.35;;;5.45;;
23300;SDS011;11819;51.394;12.340;2023-04-25T07:51:12;9.95;;;4.38;;
23300;SDS011;11819;51.394;12.340;2023-04-25T07:53:38;12.10;;;5.65;;
23300;SDS011;11819;51.394;12.340;2023-04-25T07:56:10;9.32;;;4.40;;
23300;SDS011;11819;51.394;12.340;2023-04-25T07:58:38;6.55;;;3.65;;
23300;SDS011;11819;51.394;12.340;2023-04-25T08:01:07;8.82;;;4.25;;
23300;SDS011;11819;51.394;12.340;2023-04-25T08:03:33;9.32;;;3.42;;
23300;SDS011;11819;51.394;12.340;2023-04-25T08:06:00;8.30;;;3.80;;
23300;SDS011;11819;51.394;12.340;2023-04-25T08:08:29;10.15;;;3.42;;
23300;SDS011;11819;51.394;12.340;2023-04-25T08:10:55;8.93;;;3.80;;
23300;SDS011;11819;51.394;12.340;2023-04-25T08:13:21;9.43;;;3.55;;
23300;SDS011;11819;51.394;12.340;2023-04-25T08:15:48;9.05;;;3.65;;
23300;SDS011;11819;51.394;12.340;2023-04-25T08:18:15;5.70;;;2.85;;
23300;SDS011;11819;51.394;12.340;2023-04-25T08:20:42;9.40;;;4.03;;
23300;SDS011;11819;51.394;12.340;2023-04-25T08:23:11;8.90;;;3.75;;
23300;SDS011;11819;51.394;12.340;2023-04-25T08:25:57;11.05;;;4.20;;
23300;SDS011;11819;51.394;12.340;2023-04-25T08:28:25;9.20;;;3.70;;
23300;SDS011;11819;51.394;12.340;2023-04-25T08:30:55;10.68;;;4.47;;
23300;SDS011;11819;51.394;12.340;2023-04-25T08:33:21;7.55;;;4.53;;
23300;SDS011;11819;51.394;12.340;2023-04-25T08:36:00;12.68;;;4.25;;
23300;SDS011;11819;51.394;12.340;2023-04-25T08:38:26;10.25;;;4.45;;
23300;SDS011;11819;51.394;12.340;2023-04-25T08:40:52;10.27;;;4.43;;
23300;SDS011;11819;51.394;12.340;2023-04-25T08:43:21;8.27;;;3.72;;
23300;SDS011;11819;51.394;12.340;2023-04-25T08:45:49;10.10;;;4.40;;
23300;SDS011;11819;51.394;12.340;2023-04-25T08:48:32;11.85;;;4.65;;
23300;SDS011;11819;51.394;12.340;2023-04-25T08:51:01;10.77;;;4.40;;
23300;SDS011;11819;51.394;12.340;2023-04-25T08:53:28;13.65;;;4.68;;
23300;SDS011;11819;51.394;12.340;2023-04-25T08:55:59;14.15;;;5.03;;
23300;SDS011;11819;51.394;12.340;2023-04-25T08:58:28;11.30;;;4.13;;
23300;SDS011;11819;51.394;12.340;2023-04-25T09:00:54;13.77;;;5.63;;
23300;SDS011;11819;51.394;12.340;2023-04-25T09:03:25;24.85;;;9.10;;
23300;SDS011;11819;51.394;12.340;2023-04-25T09:05:51;12.10;;;5.10;;
23300;SDS011;11819;51.394;12.340;2023-04-25T09:08:17;38.95;;;7.53;;
23300;SDS011;11819;51.394;12.340;2023-04-25T09:10:43;7.72;;;3.35;;
23300;SDS011;11819;51.394;12.340;2023-04-25T09:13:10;32.13;;;7.65;;
23300;SDS011;11819;51.394;12.340;2023-04-25T09:16:04;11.43;;;4.15;;
23300;SDS011;11819;51.394;12.340;2023-04-25T09:18:38;12.48;;;4.63;;
23300;SDS011;11819;51.394;12.340;2023-04-25T09:21:05;13.38;;;5.10;;
23300;SDS011;11819;51.394;12.340;2023-04-25T09:23:46;14.68;;;5.38;;
23300;SDS011;11819;51.394;12.340;2023-04-25T09:26:14;10.65;;;5.03;;
23300;SDS011;11819;51.394;12.340;2023-04-25T09:28:43;12.93;;;4.88;;
23300;SDS011;11819;51.394;12.340;2023-04-25T09:31:11;12.77;;;4.60;;
23300;SDS011;11819;51.394;12.340;2023-04-25T09:33:43;11.52;;;4.72;;
23300;SDS011;11819;51.394;12.340;2023-04-25T09:36:09;14.35;;;4.97;;
23300;SDS011;11819;51.394;12.340;2023-04-25T09:38:48;12.35;;;5.35;;
23300;SDS011;11819;51.394;12.340;2023-04-25T09:41:25;14.73;;;5.65;;
23300;SDS011;11819;51.394;12.340;2023-04-25T09:43:56;12.48;;;6.28;;
23300;SDS011;11819;51.394;12.340;2023-04-25T09:46:24;12.90;;;5.72;;
23300;SDS011;11819;51.394;12.340;2023-04-25T09:48:54;15.70;;;5.68;;
23300;SDS011;11819;51.394;12.340;2023-04-25T09:51:27;15.60;;;5.93;;
23300;SDS011;11819;51.394;12.340;2023-04-25T09:53:56;15.23;;;6.03;;
23300;SDS011;11819;51.394;12.340;2023-04-25T09:56:29;11.98;;;6.05;;
23300;SDS011;11819;51.394;12.340;2023-04-25T09:59:03;13.02;;;6.70;;
23300;SDS011;11819;51.394;12.340;2023-04-25T10:01:32;11.43;;;6.30;;
23300;SDS011;11819;51.394;12.340;2023-04-25T10:04:08;15.30;;;6.32;;
23300;SDS011;11819;51.394;12.340;2023-04-25T10:06:44;16.33;;;7.63;;
23300;SDS011;11819;51.394;12.340;2023-04-25T10:09:11;12.93;;;6.57;;
23300;SDS011;11819;51.394;12.340;2023-04-25T10:11:38;16.48;;;6.57;;
23300;SDS011;11819;51.394;12.340;2023-04-25T10:14:04;14.57;;;7.25;;
23300;SDS011;11819;51.394;12.340;2023-04-25T10:16:31;15.45;;;7.30;;
23300;SDS011;11819;51.394;12.340;2023-04-25T10:18:57;13.65;;;7.03;;
23300;SDS011;11819;51.394;12.340;2023-04-25T10:21:23;14.60;;;7.90;;
23300;SDS011;11819;51.394;12.340;2023-04-25T10:23:51;15.32;;;7.57;;
23300;SDS011;11819;51.394;12.340;2023-04-25T10:26:18;16.75;;;9.05;;
23300;SDS011;11819;51.394;12.340;2023-04-25T10:28:58;18.58;;;7.65;;
23300;SDS011;11819;51.394;12.340;2023-04-25T10:31:24;16.20;;;7.88;;
23300;SDS011;11819;51.394;12.340;2023-04-25T10:33:51;15.55;;;8.40;;
23300;SDS011;11819;51.394;12.340;2023-04-25T10:36:19;14.15;;;7.28;;
23300;SDS011;11819;51.394;12.340;2023-04-25T10:38:49;16.98;;;8.20;;
23300;SDS011;11819;51.394;12.340;2023-04-25T10:41:17;15.25;;;8.32;;
23300;SDS011;11819;51.394;12.340;2023-04-25T10:43:48;20.38;;;9.55;;
23300;SDS011;11819;51.394;12.340;2023-04-25T10:46:17;16.98;;;9.43;;
23300;SDS011;11819;51.394;12.340;2023-04-25T10:51:25;14.57;;;7.68;;
23300;SDS011;11819;51.394;12.340;2023-04-25T10:56:27;14.70;;;7.55;;
23300;SDS011;11819;51.394;12.340;2023-04-25T10:59:10;15.90;;;7.72;;
23300;SDS011;11819;51.394;12.340;2023-04-25T11:04:31;14.77;;;7.20;;
23300;SDS011;11819;51.394;12.340;2023-04-25T11:07:19;12.93;;;7.00;;
23300;SDS011;11819;51.394;12.340;2023-04-25T11:09:53;17.20;;;8.30;;
23300;SDS011;11819;51.394;12.340;2023-04-25T11:12:19;17.10;;;8.23;;
23300;SDS011;11819;51.394;12.340;2023-04-25T11:14:45;15.02;;;6.80;;
23300;SDS011;11819;51.394;12.340;2023-04-25T11:17:10;16.63;;;8.55;;
23300;SDS011;11819;51.394;12.340;2023-04-25T11:19:36;13.40;;;7.20;;
23300;SDS011;11819;51.394;12.340;2023-04-25T11:22:02;19.20;;;7.75;;
23300;SDS011;11819;51.394;12.340;2023-04-25T11:24:32;10.63;;;5.43;;
23300;SDS011;11819;51.394;12.340;2023-04-25T11:27:02;14.23;;;5.93;;
23300;SDS011;11819;51.394;12.340;2023-04-25T11:29:32;15.65;;;6.15;;
23300;SDS011;11819;51.394;12.340;2023-04-25T11:31:59;10.82;;;5.55;;
23300;SDS011;11819;51.394;12.340;2023-04-25T11:34:29;12.93;;;6.82;;
23300;SDS011;11819;51.394;12.340;2023-04-25T11:36:56;12.38;;;4.93;;
23300;SDS011;11819;51.394;12.340;2023-04-25T11:39:23;15.95;;;5.38;;
23300;SDS011;11819;51.394;12.340;2023-04-25T11:41:49;9.40;;;4.10;;
23300;SDS011;11819;51.394;12.340;2023-04-25T11:44:17;9.98;;;4.57;;
23300;SDS011;11819;51.394;12.340;2023-04-25T11:46:44;12.93;;;4.38;;
23300;SDS011;11819;51.394;12.340;2023-04-25T11:49:11;14.70;;;4.40;;
23300;SDS011;11819;51.394;12.340;2023-04-25T11:51:40;15.63;;;4.72;;
23300;SDS011;11819;51.394;12.340;2023-04-25T11:54:15;10.82;;;3.75;;
23300;SDS011;11819;51.394;12.340;2023-04-25T11:56:43;13.00;;;4.50;;
23300;SDS011;11819;51.394;12.340;2023-04-25T11:59:09;9.40;;;3.95;;
23300;SDS011;11819;51.394;12.340;2023-04-25T12:01:37;11.85;;;4.07;;
23300;SDS011;11819;51.394;12.340;2023-04-25T12:04:14;8.45;;;4.13;;
23300;SDS011;11819;51.394;12.340;2023-04-25T12:06:42;9.73;;;3.72;;
23300;SDS011;11819;51.394;12.340;2023-04-25T12:09:09;10.20;;;3.67;;
23300;SDS011;11819;51.394;12.340;2023-04-25T12:11:46;9.90;;;3.50;;
23300;SDS011;11819;51.394;12.340;2023-04-25T12:14:20;9.60;;;3.38;;
23300;SDS011;11819;51.394;12.340;2023-04-25T12:16:49;7.47;;;3.00;;
23300;SDS011;11819;51.394;12.340;2023-04-25T12:19:16;7.97;;;3.10;;
23300;SDS011;11819;51.394;12.340;2023-04-25T12:21:43;11.75;;;3.30;;
23300;SDS011;11819;51.394;12.340;2023-04-25T12:24:10;8.73;;;2.88;;
23300;SDS011;11819;51.394;12.340;2023-04-25T12:26:47;9.77;;;3.40;;
23300;SDS011;11819;51.394;12.340;2023-04-25T12:29:30;34.42;;;4.90;;
23300;SDS011;11819;51.394;12.340;2023-04-25T12:31:58;9.80;;;4.13;;
23300;SDS011;11819;51.394;12.340;2023-04-25T12:34:24;12.88;;;4.30;;
23300;SDS011;11819;51.394;12.340;2023-04-25T12:36:50;9.32;;;3.70;;
23300;SDS011;11819;51.394;12.340;2023-04-25T12:39:20;8.35;;;3.50;;
23300;SDS011;11819;51.394;12.340;2023-04-25T12:41:50;8.07;;;2.97;;
23300;SDS011;11819;51.394;12.340;2023-04-25T12:44:19;9.40;;;2.83;;
23300;SDS011;11819;51.394;12.340;2023-04-25T12:46:45;11.32;;;3.00;;
23300;SDS011;11819;51.394;12.340;2023-04-25T12:49:11;8.60;;;2.78;;
23300;SDS011;11819;51.394;12.340;2023-04-25T12:51:38;15.50;;;4.88;;
23300;SDS011;11819;51.394;12.340;2023-04-25T12:54:04;7.50;;;2.92;;
23300;SDS011;11819;51.394;12.340;2023-04-25T12:56:32;6.03;;;2.90;;
23300;SDS011;11819;51.394;12.340;2023-04-25T12:58:57;7.10;;;2.47;;
23300;SDS011;11819;51.394;12.340;2023-04-25T13:01:25;6.63;;;2.53;;
23300;SDS011;11819;51.394;12.340;2023-04-25T13:03:51;6.57;;;2.60;;
23300;SDS011;11819;51.394;12.340;2023-04-25T13:06:18;5.50;;;2.35;;
23300;SDS011;11819;51.394;12.340;2023-04-25T13:08:45;9.18;;;2.78;;
23300;SDS011;11819;51.394;12.340;2023-04-25T13:11:11;22.13;;;4.78;;
23300;SDS011;11819;51.394;12.340;2023-04-25T13:13:37;6.53;;;2.47;;
23300;SDS011;11819;51.394;12.340;2023-04-25T13:16:05;8.20;;;2.33;;
23300;SDS011;11819;51.394;12.340;2023-04-25T13:18:32;5.85;;;2.13;;
23300;SDS011;11819;51.394;12.340;2023-04-25T13:20:58;7.20;;;2.40;;
23300;SDS011;11819;51.394;12.340;2023-04-25T13:23:27;5.90;;;2.20;;
23300;SDS011;11819;51.394;12.340;2023-04-25T13:25:54;8.27;;;2.83;;
23300;SDS011;11819;51.394;12.340;2023-04-25T13:28:24;7.57;;;2.25;;
23300;SDS011;11819;51.394;12.340;2023-04-25T13:30:50;6.65;;;2.80;;
23300;SDS011;11819;51.394;12.340;2023-04-25T13:33:16;26.38;;;13.57;;
23300;SDS011;11819;51.394;12.340;2023-04-25T13:35:42;7.50;;;3.15;;
23300;SDS011;11819;51.394;12.340;2023-04-25T13:38:08;28.33;;;5.68;;
23300;SDS011;11819;51.394;12.340;2023-04-25T13:40:34;49.25;;;9.65;;
23300;SDS011;11819;51.394;12.340;2023-04-25T13:43:01;6.63;;;2.97;;
23300;SDS011;11819;51.394;12.340;2023-04-25T13:45:27;10.30;;;2.92;;
23300;SDS011;11819;51.394;12.340;2023-04-25T13:47:52;7.63;;;3.47;;
23300;SDS011;11819;51.394;12.340;2023-04-25T13:50:18;25.77;;;16.15;;
23300;SDS011;11819;51.394;12.340;2023-04-25T13:52:45;9.23;;;4.10;;
23300;SDS011;11819;51.394;12.340;2023-04-25T13:55:12;5.57;;;2.67;;
23300;SDS011;11819;51.394;12.340;2023-04-25T13:57:37;7.05;;;2.75;;
23300;SDS011;11819;51.394;12.340;2023-04-25T14:00:03;7.57;;;2.90;;
23300;SDS011;11819;51.394;12.340;2023-04-25T14:02:36;8.25;;;2.97;;
23300;SDS011;11819;51.394;12.340;2023-04-25T14:05:05;6.07;;;2.55;;
23300;SDS011;11819;51.394;12.340;2023-04-25T14:07:33;6.45;;;2.63;;
23300;SDS011;11819;51.394;12.340;2023-04-25T14:09:59;6.78;;;2.45;;
23300;SDS011;11819;51.394;12.340;2023-04-25T14:12:25;8.75;;;2.72;;
23300;SDS011;11819;51.394;12.340;2023-04-25T14:14:51;6.35;;;2.65;;
23300;SDS011;11819;51.394;12.340;2023-04-25T14:17:18;9.68;;;2.42;;
23300;SDS011;11819;51.394;12.340;2023-04-25T14:19:44;4.50;;;2.22;;
23300;SDS011;11819;51.394;12.340;2023-04-25T14:22:12;7.05;;;2.90;;
23300;SDS011;11819;51.394;12.340;2023-04-25T14:24:39;6.38;;;2.42;;
23300;SDS011;11819;51.394;12.340;2023-04-25T14:27:04;6.30;;;2.95;;
23300;SDS011;11819;51.394;12.340;2023-04-25T14:29:30;9.73;;;3.00;;
23300;SDS011;11819;51.394;12.340;2023-04-25T14:31:56;5.10;;;2.80;;
23300;SDS011;11819;51.394;12.340;2023-04-25T14:34:23;7.97;;;2.97;;
23300;SDS011;11819;51.394;12.340;2023-04-25T14:36:50;5.07;;;2.60;;
23300;SDS011;11819;51.394;12.340;2023-04-25T14:39:16;7.90;;;3.13;;
23300;SDS011;11819;51.394;12.340;2023-04-25T14:41:42;6.30;;;2.35;;
23300;SDS011;11819;51.394;12.340;2023-04-25T14:44:07;10.13;;;5.63;;